Drumbo, Canada
Current Conditions -  °F | °C
As of 7:00 PM on Wednesday 28 Jan 2015 (Local Time) from CYKF Reporting Station
Clear Clear  
Wind Chill: 18°   Ceiling: Unl
Heat Index: 18°   Visibility: 9mi
Dew Point:   Wind: 0mph
Humidity: 58%   Direction: NA
Pressure: 30.26"   Gusts: NA
Location:  43.23°N, 80.55°W
Report Text: CYKF 290000Z AUTO 00000KT 9SM CLR M08/M15 A3026 RMK SLP271
Loading
Personal Weather Stations






























Interactive Weather Map New forecast layout! Learn more

10-Day Weather Forecast

Advertisements
Track Severe Weather on mobile